Home > Products > Valid Products > MTR

000
SAUS44 KLIX 072354
MTRBVE
METAR KBVE 072351Z AUTO 23008KT 10SM CLR 11/01 A3018 RMK AO2 SLP221
T01110006 10133 20111 53001





000
SAUS44 KLIX 072254
MTRBVE
METAR KBVE 072251Z AUTO 20005KT 10SM CLR 12/M03 A3017 RMK AO2 SLP217
T01221033





000
SAUS44 KLIX 072154
MTRBVE
METAR KBVE 072151Z AUTO 09003KT 10SM CLR 13/M06 A3018 RMK AO2 SLP219
T01331061





000
SAUS44 KLIX 072056 COR
MTRBVE
METAR KBVE 072051Z AUTO 08003KT 10SM CLR 13/M03 A3018 RMK AO2 SLP219
T01281028 56037





000
SAUS44 KLIX 072056 COR
MTRBVE
METAR KBVE 072051Z AUTO 08003KT 10SM CLR 13/M03 A3018 RMK AO2 SLP219
T01281028 56037





000
SAUS44 KLIX 072053 COR
MTRBVE
METAR KBVE 072051Z AUTO 08003KT 10SM CLR 13/M03 A3018 RMK AO2 SLP219
T01281028 56037





000
SAUS44 KLIX 072052
MTRBVE
METAR KBVE 072051Z AUTO 08003KT 10SM CLR 13/M03 A3018 RMK AO2 SLP219
T01281028 56037





000
SAUS44 KLIX 071952
MTRBVE
METAR KBVE 071951Z AUTO VRB04KT 10SM CLR 13/M01 A3021 RMK AO2 SLP231
T01281006





000
SAUS44 KLIX 071852
MTRBVE
METAR KBVE 071851Z AUTO 36005KT 10SM CLR 12/01 A3025 RMK AO2 SLP243
T01220006





000
SAUS44 KLIX 071852
MTRBVE
METAR KBVE 071851Z AUTO 36005KT 10SM CLR 12/01 A3025 RMK AO2 SLP243
T01220006





000
SAUS44 KLIX 071754
MTRBVE
METAR KBVE 071751Z AUTO 36005KT 10SM CLR 12/01 A3029 RMK AO2 SLP256
T01220011 10122 20078 58008





000
SAUS44 KLIX 071754
MTRBVE
METAR KBVE 071751Z AUTO 36005KT 10SM CLR 12/01 A3029 RMK AO2 SLP256
T01220011 10122 20078 58008





000
SAUS44 KLIX 071656
MTRBVE
METAR KBVE 071651Z AUTO 36006KT 10SM CLR 12/01 A3030 RMK AO2 SLP260
T01170011





000
SAUS44 KLIX 071656
MTRBVE
METAR KBVE 071651Z AUTO 36006KT 10SM CLR 12/01 A3030 RMK AO2 SLP260
T01170011





000
SAUS44 KLIX 071554
MTRBVE
METAR KBVE 071551Z AUTO 36004KT 10SM CLR 12/02 A3032 RMK AO2 SLP266
T01170017





000
SAUS44 KLIX 071454
MTRBVE
METAR KBVE 071451Z AUTO 36005KT 10SM CLR 11/02 A3031 RMK AO2 SLP265
T01060022 51010





000
SAUS44 KLIX 071454
MTRBVE
METAR KBVE 071451Z AUTO 36005KT 10SM CLR 11/02 A3031 RMK AO2 SLP265
T01060022 51010





000
SAUS44 KLIX 071356 COR
MTRBVE
METAR KBVE 071351Z AUTO 36004KT 10SM CLR 09/02 A3031 RMK AO2 SLP265
T00940022





000
SAUS44 KLIX 071355 COR
MTRBVE
METAR KBVE 071351Z AUTO 36004KT 10SM CLR 09/02 A3031 RMK AO2 SLP265
T00940022





000
SAUS44 KLIX 071256 COR
MTRBVE
METAR KBVE 071251Z AUTO 35004KT 10SM CLR 08/03 A3030 RMK AO2 SLP261
T00780028





000
SAUS44 KLIX 071255 COR
MTRBVE
METAR KBVE 071251Z AUTO 35004KT 10SM CLR 08/03 A3030 RMK AO2 SLP261
T00780028





000
SAUS44 KLIX 071254
MTRBVE
METAR KBVE 071251Z AUTO 35004KT 10SM CLR 08/03 A3030 RMK AO2 SLP261
T00780028





000
SAUS44 KLIX 071254
MTRBVE
METAR KBVE 071251Z AUTO 35004KT 10SM CLR 08/03 A3030 RMK AO2 SLP261
T00780028





000
SAUS44 KLIX 071152
MTRBVE
METAR KBVE 071151Z AUTO 34005KT 10SM CLR 08/03 A3029 RMK AO2 SLP255
T00830028 10089 20050 53010





000
SAUS44 KLIX 071052
MTRBVE
METAR KBVE 071051Z AUTO 34005KT 10SM CLR 08/04 A3027 RMK AO2 SLP250
T00780039





000
SAUS44 KLIX 070952
MTRBVE
METAR KBVE 070951Z AUTO 32004KT 10SM CLR 08/04 A3027 RMK AO2 SLP248
T00780044





000
SAUS44 KLIX 070852
MTRBVE
METAR KBVE 070851Z AUTO 33006KT 10SM CLR 08/04 A3026 RMK AO2 SLP245
T00830039 56006





000
SAUS44 KLIX 070754
MTRBVE
METAR KBVE 070751Z AUTO 33007KT 10SM CLR 07/04 A3026 RMK AO2 SLP247
T00720044





000
SAUS44 KLIX 070657 COR
MTRBVE
METAR KBVE 070651Z AUTO 31004KT 10SM CLR 07/04 A3026 RMK AO2 SLP247
T00720039





000
SAUS44 KLIX 070657 COR
MTRBVE
METAR KBVE 070651Z AUTO 31004KT 10SM CLR 07/04 A3026 RMK AO2 SLP247
T00720039





000
SAUS44 KLIX 070656
MTRBVE
METAR KBVE 070651Z AUTO 31004KT 10SM CLR 07/04 A3026 RMK AO2 SLP247
T00720039





000
SAUS44 KLIX 070656
MTRBVE
METAR KBVE 070651Z AUTO 31004KT 10SM CLR 07/04 A3026 RMK AO2 SLP247
T00720039





000
SAUS44 KLIX 070552
MTRBVE
METAR KBVE 070551Z AUTO 31005KT 10SM CLR 08/04 A3027 RMK AO2 SLP251
T00830039 10100 20078 401330056 58003





000
SAUS44 KLIX 070552
MTRBVE
METAR KBVE 070551Z AUTO 31005KT 10SM CLR 08/04 A3027 RMK AO2 SLP251
T00830039 10100 20078 401330056 58003





000
SAUS44 KLIX 070452
MTRBVE
METAR KBVE 070451Z AUTO 31004KT 10SM FEW100 08/03 A3028 RMK AO2
SLP253 T00830028





000
SAUS44 KLIX 070452
MTRBVE
METAR KBVE 070451Z AUTO 31004KT 10SM FEW100 08/03 A3028 RMK AO2
SLP253 T00830028





000
SAUS44 KLIX 070352
MTRBVE
METAR KBVE 070351Z AUTO 33004KT 10SM FEW100 08/02 A3029 RMK AO2
SLP255 T00830022





000
SAUS44 KLIX 070352
MTRBVE
METAR KBVE 070351Z AUTO 33004KT 10SM FEW100 08/02 A3029 RMK AO2
SLP255 T00830022





000
SAUS44 KLIX 070253
MTRBVE
METAR KBVE 070251Z AUTO 34003KT 10SM CLR 09/02 A3028 RMK AO2 SLP254
T00890017 51006





000
SAUS44 KLIX 070253
MTRBVE
METAR KBVE 070251Z AUTO 34003KT 10SM CLR 09/02 A3028 RMK AO2 SLP254
T00890017 51006





000
SAUS44 KLIX 070154
MTRBVE
METAR KBVE 070151Z AUTO 00000KT 10SM SCT080 OVC100 09/02 A3028 RMK
AO2 SLP253 T00940022





000
SAUS44 KLIX 070052
MTRBVE
METAR KBVE 070051Z AUTO 00000KT 10SM BKN095 BKN120 09/01 A3027 RMK
AO2 SLP250 T00940011





000
SAUS44 KLIX 070052
MTRBVE
METAR KBVE 070051Z AUTO 00000KT 10SM BKN095 BKN120 09/01 A3027 RMK
AO2 SLP250 T00940011





000
SAUS44 KLIX 062352
MTRBVE
METAR KBVE 062351Z AUTO 36003KT 10SM BKN070 OVC090 10/02 A3027 RMK
AO2 SLP248 T01000017 10133 20100 53002





000
SAUS44 KLIX 062352
MTRBVE
METAR KBVE 062351Z AUTO 36003KT 10SM BKN070 OVC090 10/02 A3027 RMK
AO2 SLP248 T01000017 10133 20100 53002





000
SAUS44 KLIX 062254
MTRBVE
METAR KBVE 062251Z AUTO 02004KT 10SM BKN120 11/02 A3026 RMK AO2
SLP246 T01060017





000
SAUS44 KLIX 062153 COR
MTRBVE
METAR KBVE 062151Z AUTO 03006KT 10SM SCT085 BKN110 12/02 A3024 RMK
AO2 SLP241 T01170017





000
SAUS44 KLIX 062052
MTRBVE
METAR KBVE 062051Z AUTO 03005KT 10SM BKN090 OVC110 12/01 A3026 RMK
AO2 SLP246 T01170011 56022





000
SAUS44 KLIX 061954
MTRBVE
METAR KBVE 061951Z AUTO 04006KT 10SM OVC090 12/01 A3027 RMK AO2
SLP250 T01220011





000
SAUS44 KLIX 061852
MTRBVE
METAR KBVE 061851Z AUTO 02007KT 10SM CLR 13/02 A3028 RMK AO2 SLP254
T01330017





000
SAUS44 KLIX 061852
MTRBVE
METAR KBVE 061851Z AUTO 02007KT 10SM CLR 13/02 A3028 RMK AO2 SLP254
T01330017





000
SAUS44 KLIX 061759 COR
MTRBVE
METAR KBVE 061751Z AUTO 03008KT 10SM CLR 12/01 A3032 RMK AO2 SLP268
T01220011 10128 20056 50005





000
SAUS44 KLIX 061759 COR
MTRBVE
METAR KBVE 061751Z AUTO 03008KT 10SM CLR 12/01 A3032 RMK AO2 SLP268
T01220011 10128 20056 50005





000
SAUS44 KLIX 061754 COR
MTRBVE
METAR KBVE 061751Z AUTO 03008KT 10SM CLR 12/01 A3032 RMK AO2 SLP268
T01220011 10128 20056 50005





000
SAUS44 KLIX 061754 COR
MTRBVE
METAR KBVE 061751Z AUTO 03008KT 10SM CLR 12/01 A3032 RMK AO2 SLP268
T01220011 10128 20056 50005





000
SAUS44 KLIX 061654
MTRBVE
METAR KBVE 061651Z AUTO 04008KT 10SM CLR 12/01 A3034 RMK AO2 SLP275
T01220011





000
SAUS44 KLIX 061654
MTRBVE
METAR KBVE 061651Z AUTO 04008KT 10SM CLR 12/01 A3034 RMK AO2 SLP275
T01220011





000
SAUS44 KLIX 061554
MTRBVE
METAR KBVE 061551Z AUTO 05007KT 10SM CLR 12/03 A3035 RMK AO2 SLP275
T01170028





000
SAUS44 KLIX 061456 COR
MTRBVE
METAR KBVE 061451Z AUTO 07010KT 10SM CLR 11/03 A3031 RMK AO2 SLP263
T01060028 58012





000
SAUS44 KLIX 061455 COR
MTRBVE
METAR KBVE 061451Z AUTO 07010KT 10SM CLR 11/03 A3031 RMK AO2 SLP263
T01060028 58012





000
SAUS44 KLIX 061454 COR
MTRBVE
METAR KBVE 061451Z AUTO 07010KT 10SM CLR 11/03 A3031 RMK AO2 SLP263
T01060028 58012





000
SAUS44 KLIX 061356 COR
MTRBVE
METAR KBVE 061351Z AUTO 04006KT 10SM CLR 10/02 A3034 RMK AO2 SLP272
T01000022





000
SAUS44 KLIX 061355 COR
MTRBVE
METAR KBVE 061351Z AUTO 04006KT 10SM CLR 10/02 A3034 RMK AO2 SLP272
T01000022





000
SAUS44 KLIX 061330
MTRBVE
SPECI KBVE 061326Z AUTO 04006KT 10SM FEW002 09/02 A3034 RMK AO2
T00890017





000
SAUS44 KLIX 061330
MTRBVE
SPECI KBVE 061326Z AUTO 04006KT 10SM FEW002 09/02 A3034 RMK AO2
T00890017





000
SAUS44 KLIX 061254
MTRBVE
METAR KBVE 061251Z AUTO 36003KT 10SM CLR 08/03 A3036 RMK AO2 SLP279
T00780028





000
SAUS44 KLIX 061152
MTRBVE
METAR KBVE 061151Z AUTO 33003KT 10SM CLR 07/02 A3034 RMK AO2 SLP275
T00670022 10083 20056 55005





000
SAUS44 KLIX 061152
MTRBVE
METAR KBVE 061151Z AUTO 33003KT 10SM CLR 07/02 A3034 RMK AO2 SLP275
T00670022 10083 20056 55005





000
SAUS44 KLIX 061054
MTRBVE
METAR KBVE 061051Z AUTO 32003KT 10SM CLR 06/03 A3034 RMK AO2 SLP273
T00610033





000
SAUS44 KLIX 061054
MTRBVE
METAR KBVE 061051Z AUTO 32003KT 10SM CLR 06/03 A3034 RMK AO2 SLP273
T00610033





000
SAUS44 KLIX 060952
MTRBVE
METAR KBVE 060951Z AUTO 31003KT 10SM CLR 07/03 A3035 RMK AO2 SLP275
T00670033





000
SAUS44 KLIX 060952
MTRBVE
METAR KBVE 060951Z AUTO 31003KT 10SM CLR 07/03 A3035 RMK AO2 SLP275
T00670033





000
SAUS44 KLIX 060854
MTRBVE
METAR KBVE 060851Z AUTO 31004KT 10SM CLR 07/03 A3036 RMK AO2 SLP279
T00720033 58005





000
SAUS44 KLIX 060854
MTRBVE
METAR KBVE 060851Z AUTO 31004KT 10SM CLR 07/03 A3036 RMK AO2 SLP279
T00720033 58005





000
SAUS44 KLIX 060752
MTRBVE
METAR KBVE 060751Z AUTO 31004KT 10SM CLR 07/03 A3037 RMK AO2 SLP282
T00720033





000
SAUS44 KLIX 060656 COR
MTRBVE
METAR KBVE 060651Z AUTO 00000KT 10SM CLR 08/03 A3037 RMK AO2 SLP283
T00830028





000
SAUS44 KLIX 060656 COR
MTRBVE
METAR KBVE 060651Z AUTO 00000KT 10SM CLR 08/03 A3037 RMK AO2 SLP283
T00830028





000
SAUS44 KLIX 060655 COR
MTRBVE
METAR KBVE 060651Z AUTO 00000KT 10SM CLR 08/03 A3037 RMK AO2 SLP283
T00830028





000
SAUS44 KLIX 060655 COR
MTRBVE
METAR KBVE 060651Z AUTO 00000KT 10SM CLR 08/03 A3037 RMK AO2 SLP283
T00830028





000
SAUS44 KLIX 060554
MTRBVE
METAR KBVE 060551Z AUTO 01003KT 10SM CLR 08/03 A3037 RMK AO2 SLP285
T00780028 10089 20050 401110050 56004





000
SAUS44 KLIX 060554
MTRBVE
METAR KBVE 060551Z AUTO 01003KT 10SM CLR 08/03 A3037 RMK AO2 SLP285
T00780028 10089 20050 401110050 56004





000
SAUS44 KLIX 060456
MTRBVE
METAR KBVE 060451Z AUTO 01004KT 10SM CLR 09/02 A3038 RMK AO2 SLP286
T00890017





000
SAUS44 KLIX 060352
MTRBVE
METAR KBVE 060351Z AUTO 35003KT 10SM CLR 07/02 A3038 RMK AO2 SLP286
T00670022





000
SAUS44 KLIX 060352
MTRBVE
METAR KBVE 060351Z AUTO 35003KT 10SM CLR 07/02 A3038 RMK AO2 SLP286
T00670022





000
SAUS44 KLIX 060252
MTRBVE
METAR KBVE 060251Z AUTO 32003KT 10SM CLR 06/02 A3039 RMK AO2 SLP289
T00560017 55001





000
SAUS44 KLIX 060252
MTRBVE
METAR KBVE 060251Z AUTO 32003KT 10SM CLR 06/02 A3039 RMK AO2 SLP289
T00560017 55001





000
SAUS44 KLIX 060152
MTRBVE
METAR KBVE 060151Z AUTO 00000KT 10SM CLR 07/02 A3038 RMK AO2 SLP285
T00670017





000
SAUS44 KLIX 060052
MTRBVE
METAR KBVE 060051Z AUTO 00000KT 10SM CLR 07/01 A3038 RMK AO2 SLP286
T00720011





000
SAUS44 KLIX 060052
MTRBVE
METAR KBVE 060051Z AUTO 00000KT 10SM CLR 07/01 A3038 RMK AO2 SLP286
T00720011





000
SAUS44 KLIX 052352
MTRBVE
METAR KBVE 052351Z AUTO 06003KT 10SM CLR 08/00 A3039 RMK AO2 SLP290
T00830000 10111 20083 58011





000
SAUS44 KLIX 052352
MTRBVE
METAR KBVE 052351Z AUTO 06003KT 10SM CLR 08/00 A3039 RMK AO2 SLP290
T00830000 10111 20083 58011





000
SAUS44 KLIX 052254
MTRBVE
METAR KBVE 052251Z AUTO 05004KT 10SM CLR 09/M02 A3040 RMK AO2 SLP294
T00941017





000
SAUS44 KLIX 052254
MTRBVE
METAR KBVE 052251Z AUTO 05004KT 10SM CLR 09/M02 A3040 RMK AO2 SLP294
T00941017





000
SAUS44 KLIX 052152
MTRBVE
METAR KBVE 052151Z AUTO VRB06KT 10SM CLR 10/M01 A3042 RMK AO2 SLP301
T01001011





000
SAUS44 KLIX 052052
MTRBVE
METAR KBVE 052051Z AUTO 02008KT 10SM CLR 11/M02 A3042 RMK AO2 SLP301
T01061017 56017





000
SAUS44 KLIX 051954
MTRBVE
METAR KBVE 051951Z AUTO 02007KT 10SM CLR 11/M01 A3043 RMK AO2 SLP303
T01061011





000
SAUS44 KLIX 051852
MTRBVE
METAR KBVE 051851Z AUTO 03008KT 10SM CLR 11/M01 A3045 RMK AO2 SLP309
T01061011





000
SAUS44 KLIX 051852
MTRBVE
METAR KBVE 051851Z AUTO 03008KT 10SM CLR 11/M01 A3045 RMK AO2 SLP309
T01061011





000
SAUS44 KLIX 051753
MTRBVE
METAR KBVE 051751Z AUTO 03007KT 10SM CLR 11/M01 A3047 RMK AO2 SLP319
T01061006 10106 20072 58008





000
SAUS44 KLIX 051753
MTRBVE
METAR KBVE 051751Z AUTO 03007KT 10SM CLR 11/M01 A3047 RMK AO2 SLP319
T01061006 10106 20072 58008





000
SAUS44 KLIX 051652
MTRBVE
METAR KBVE 051651Z AUTO 03007KT 10SM CLR 10/00 A3050 RMK AO2 SLP328
T01000000





000
SAUS44 KLIX 051552
MTRBVE
METAR KBVE 051551Z AUTO 03009KT 10SM CLR 09/00 A3050 RMK AO2 SLP327
T00940000





000
SAUS44 KLIX 051454
MTRBVE
METAR KBVE 051451Z AUTO 02009G16KT 10SM CLR 09/01 A3050 RMK AO2
SLP327 T00890006 51017





000
SAUS44 KLIX 051355 COR
MTRBVE
METAR KBVE 051351Z AUTO 02009KT 10SM CLR 08/00 A3049 RMK AO2 SLP324
T00830000





000
SAUS44 KLIX 051354
MTRBVE
METAR KBVE 051351Z AUTO 02009KT 10SM CLR 08/00 A3049 RMK AO2 SLP324
T00830000





000
SAUS44 KLIX 051354
MTRBVE
METAR KBVE 051351Z AUTO 02009KT 10SM CLR 08/00 A3049 RMK AO2 SLP324
T00830000





000
SAUS44 KLIX 051327
MTRBVE
SPECI KBVE 051325Z AUTO 03006KT 10SM FEW002 08/00 A3048 RMK AO2
T00780000





000
SAUS44 KLIX 051327
MTRBVE
SPECI KBVE 051325Z AUTO 03006KT 10SM FEW002 08/00 A3048 RMK AO2
T00780000





000
SAUS44 KLIX 051252
MTRBVE
METAR KBVE 051251Z AUTO 03008KT 10SM CLR 07/00 A3047 RMK AO2 SLP316
T00720000





000
SAUS44 KLIX 051252
MTRBVE
METAR KBVE 051251Z AUTO 03008KT 10SM CLR 07/00 A3047 RMK AO2 SLP316
T00720000





000
SAUS44 KLIX 051152
MTRBVE
METAR KBVE 051151Z AUTO 02007KT 10SM CLR 07/00 A3045 RMK AO2 SLP310
T00720000 10083 20072 53010





000
SAUS44 KLIX 051152
MTRBVE
METAR KBVE 051151Z AUTO 02007KT 10SM CLR 07/00 A3045 RMK AO2 SLP310
T00720000 10083 20072 53010





000
SAUS44 KLIX 051055 COR
MTRBVE
METAR KBVE 051051Z AUTO 02008G15KT 10SM CLR 08/00 A3042 RMK AO2
SLP301 T00780000





000
SAUS44 KLIX 051055 COR
MTRBVE
METAR KBVE 051051Z AUTO 02008G15KT 10SM CLR 08/00 A3042 RMK AO2
SLP301 T00780000





000
SAUS44 KLIX 051054
MTRBVE
METAR KBVE 051051Z AUTO 02008G15KT 10SM CLR 08/00 A3042 RMK AO2
SLP301 T00780000





000
SAUS44 KLIX 051054
MTRBVE
METAR KBVE 051051Z AUTO 02008G15KT 10SM CLR 08/00 A3042 RMK AO2
SLP301 T00780000





000
SAUS44 KLIX 050952
MTRBVE
METAR KBVE 050951Z AUTO 03008G16KT 10SM CLR 08/00 A3041 RMK AO2
SLP297 T00780000





000
SAUS44 KLIX 050852
MTRBVE
METAR KBVE 050851Z AUTO 02007G18KT 10SM CLR 08/M01 A3042 RMK AO2
SLP300 T00781006 50000





000
SAUS44 KLIX 050752
MTRBVE
METAR KBVE 050751Z AUTO 01009G18KT 10SM CLR 08/M01 A3042 RMK AO2
SLP302 T00781006





000
SAUS44 KLIX 050655 COR
MTRBVE
METAR KBVE 050651Z AUTO 01010G17KT 10SM CLR 08/M02 A3042 RMK AO2
SLP302 T00781017





000
SAUS44 KLIX 050655 COR
MTRBVE
METAR KBVE 050651Z AUTO 01010G17KT 10SM CLR 08/M02 A3042 RMK AO2
SLP302 T00781017





000
SAUS44 KLIX 050554
MTRBVE
METAR KBVE 050551Z AUTO 36007G18KT 10SM CLR 08/M01 A3042 RMK AO2
SLP300 T00831006 10111 20083 401280083 51010





000
SAUS44 KLIX 050554
MTRBVE
METAR KBVE 050551Z AUTO 36007G18KT 10SM CLR 08/M01 A3042 RMK AO2
SLP300 T00831006 10111 20083 401280083 51010





000
SAUS44 KLIX 050454
MTRBVE
METAR KBVE 050451Z AUTO 36010G17KT 10SM CLR 09/M02 A3041 RMK AO2
SLP296 T00891022





000
SAUS44 KLIX 050454
MTRBVE
METAR KBVE 050451Z AUTO 36010G17KT 10SM CLR 09/M02 A3041 RMK AO2
SLP296 T00891022





000
SAUS44 KLIX 050352
MTRBVE
METAR KBVE 050351Z AUTO 36010G21KT 10SM CLR 09/M03 A3040 RMK AO2
SLP294 T00941033





000
SAUS44 KLIX 050352
MTRBVE
METAR KBVE 050351Z AUTO 36010G21KT 10SM CLR 09/M03 A3040 RMK AO2
SLP294 T00941033





000
SAUS44 KLIX 050252
MTRBVE
METAR KBVE 050251Z AUTO 35010G17KT 10SM CLR 10/M02 A3039 RMK AO2
SLP289 T01001017 51021





000
SAUS44 KLIX 050154
MTRBVE
METAR KBVE 050151Z AUTO 34016G23KT 10SM CLR 11/M03 A3037 RMK AO2
SLP282 T01061028





000
SAUS44 KLIX 050154
MTRBVE
METAR KBVE 050151Z AUTO 34016G23KT 10SM CLR 11/M03 A3037 RMK AO2
SLP282 T01061028





000
SAUS44 KLIX 050053 COR
MTRBVE
METAR KBVE 050051Z AUTO 34014G22KT 10SM CLR 11/M01 A3035 RMK AO2
SLP276 T01111011





000
SAUS44 KLIX 050053 COR
MTRBVE
METAR KBVE 050051Z AUTO 34014G22KT 10SM CLR 11/M01 A3035 RMK AO2
SLP276 T01111011





    US Dept of Commerce
    National Oceanic and Atmospheric Administration
    National Weather Service
    1325 East West Highway
    Silver Spring, MD 20910
    Page Author: NWS Internet Services Team
Disclaimer
Information Quality
Credits
Glossary
Privacy Policy
Freedom of Information Act (FOIA)
About Us
Career Opportunities